Dallas, Texas
Traffic Map
Current Weather Conditions
Dallas, Texas
Overcast Heavy Rain
Overcast
75°
Feels Like: 75°
Wind Chill: 75° Ceiling: 1500
Heat Index: 75° Visibility: 3mi
Dew Point: 74° Wind: 5mph
Humidity: 96% Direction: 80° (E)
Pressure: 29.95in Gusts: 0mph
Raw Report DataKDAL 220453Z 08004KT 3SM +RA BR FEW004 OVC015 24/23 A2995 RMK AO2 SLP134 P0059 T02390233 $
Traffic Incident Summary
Active as of:
Severity:
Category:
InformationThere was an issue retrieving the traffic information for this location. Please try a different location or try again shortly.
Advertisements